sensor_id;sensor_type;location;lat;lon;timestamp;pressure;altitude;pressure_sealevel;temperature;humidity
15314;BME280;7757;52.626;4.746;2022-09-09T00:01:41;100522.72;;;23.65;58.43
15314;BME280;7757;52.626;4.746;2022-09-09T00:04:13;100516.19;;;23.66;58.62
15314;BME280;7757;52.626;4.746;2022-09-09T00:06:45;100510.19;;;23.64;59.14
15314;BME280;7757;52.626;4.746;2022-09-09T00:09:16;100512.09;;;23.64;58.74
15314;BME280;7757;52.626;4.746;2022-09-09T00:11:50;100508.28;;;23.60;58.79
15314;BME280;7757;52.626;4.746;2022-09-09T00:14:23;100503.91;;;23.64;58.80
15314;BME280;7757;52.626;4.746;2022-09-09T00:16:55;100500.06;;;23.65;58.42
15314;BME280;7757;52.626;4.746;2022-09-09T00:19:24;100500.63;;;23.67;58.71
15314;BME280;7757;52.626;4.746;2022-09-09T00:22:04;100504.22;;;23.57;58.51
15314;BME280;7757;52.626;4.746;2022-09-09T00:24:40;100505.28;;;23.56;58.87
15314;BME280;7757;52.626;4.746;2022-09-09T00:27:16;100508.03;;;23.56;58.22
15314;BME280;7757;52.626;4.746;2022-09-09T00:29:47;100504.50;;;23.51;58.62
15314;BME280;7757;52.626;4.746;2022-09-09T00:32:19;100506.38;;;23.60;58.33
15314;BME280;7757;52.626;4.746;2022-09-09T00:34:49;100499.03;;;23.56;58.33
15314;BME280;7757;52.626;4.746;2022-09-09T00:37:18;100507.47;;;23.64;58.09
15314;BME280;7757;52.626;4.746;2022-09-09T00:39:46;100514.56;;;23.60;58.26
15314;BME280;7757;52.626;4.746;2022-09-09T00:42:16;100513.53;;;23.36;59.09
15314;BME280;7757;52.626;4.746;2022-09-09T00:44:53;100507.56;;;23.39;59.25
15314;BME280;7757;52.626;4.746;2022-09-09T00:47:35;100506.97;;;23.52;58.69
15314;BME280;7757;52.626;4.746;2022-09-09T00:50:15;100506.44;;;23.30;59.10
15314;BME280;7757;52.626;4.746;2022-09-09T00:52:49;100496.88;;;23.53;58.74
15314;BME280;7757;52.626;4.746;2022-09-09T00:55:23;100498.47;;;23.59;58.28
15314;BME280;7757;52.626;4.746;2022-09-09T00:57:54;100488.44;;;23.39;58.13
15314;BME280;7757;52.626;4.746;2022-09-09T01:00:22;100483.25;;;23.32;58.78
15314;BME280;7757;52.626;4.746;2022-09-09T01:02:59;100475.09;;;23.27;59.17
15314;BME280;7757;52.626;4.746;2022-09-09T01:05:34;100472.63;;;23.31;58.62
15314;BME280;7757;52.626;4.746;2022-09-09T01:08:08;100481.03;;;23.50;58.33
15314;BME280;7757;52.626;4.746;2022-09-09T01:10:43;100476.38;;;23.50;58.07
15314;BME280;7757;52.626;4.746;2022-09-09T01:13:22;100478.63;;;23.38;58.40
15314;BME280;7757;52.626;4.746;2022-09-09T01:15:50;100481.34;;;23.43;58.04
15314;BME280;7757;52.626;4.746;2022-09-09T01:18:21;100477.53;;;23.44;58.72
15314;BME280;7757;52.626;4.746;2022-09-09T01:20:55;100471.25;;;23.44;58.76
15314;BME280;7757;52.626;4.746;2022-09-09T01:23:41;100473.97;;;23.39;58.99
15314;BME280;7757;52.626;4.746;2022-09-09T01:26:17;100471.81;;;23.41;59.15
15314;BME280;7757;52.626;4.746;2022-09-09T01:28:46;100470.47;;;23.23;59.21
15314;BME280;7757;52.626;4.746;2022-09-09T01:31:17;100467.13;;;23.36;59.19
15314;BME280;7757;52.626;4.746;2022-09-09T01:33:44;100467.16;;;23.31;59.21
15314;BME280;7757;52.626;4.746;2022-09-09T01:36:13;100469.91;;;23.41;58.60
15314;BME280;7757;52.626;4.746;2022-09-09T01:38:42;100460.31;;;23.33;58.80
15314;BME280;7757;52.626;4.746;2022-09-09T01:41:08;100469.91;;;23.26;59.34
15314;BME280;7757;52.626;4.746;2022-09-09T01:43:37;100465.25;;;23.26;58.84
15314;BME280;7757;52.626;4.746;2022-09-09T01:46:03;100469.13;;;23.20;59.21
15314;BME280;7757;52.626;4.746;2022-09-09T01:48:31;100465.56;;;23.20;58.86
15314;BME280;7757;52.626;4.746;2022-09-09T01:50:58;100466.94;;;23.17;58.73
15314;BME280;7757;52.626;4.746;2022-09-09T01:53:24;100473.19;;;23.18;59.32
15314;BME280;7757;52.626;4.746;2022-09-09T01:55:58;100465.59;;;23.10;59.24
15314;BME280;7757;52.626;4.746;2022-09-09T01:58:34;100469.94;;;23.16;58.83
15314;BME280;7757;52.626;4.746;2022-09-09T02:01:11;100468.84;;;23.22;59.16
15314;BME280;7757;52.626;4.746;2022-09-09T02:03:43;100463.41;;;23.17;59.52
15314;BME280;7757;52.626;4.746;2022-09-09T02:06:21;100463.41;;;23.12;58.92
15314;BME280;7757;52.626;4.746;2022-09-09T02:08:52;100457.41;;;23.10;59.32
15314;BME280;7757;52.626;4.746;2022-09-09T02:11:23;100459.53;;;23.28;58.57
15314;BME280;7757;52.626;4.746;2022-09-09T02:13:52;100457.34;;;23.25;58.40
15314;BME280;7757;52.626;4.746;2022-09-09T02:16:24;100456.25;;;23.31;58.72
15314;BME280;7757;52.626;4.746;2022-09-09T02:18:56;100453.53;;;23.21;58.45
15314;BME280;7757;52.626;4.746;2022-09-09T02:21:25;100463.38;;;23.22;58.96
15314;BME280;7757;52.626;4.746;2022-09-09T02:23:54;100459.31;;;23.14;59.21
15314;BME280;7757;52.626;4.746;2022-09-09T02:26:23;100464.47;;;23.26;58.89
15314;BME280;7757;52.626;4.746;2022-09-09T02:28:54;100463.66;;;23.15;58.94
15314;BME280;7757;52.626;4.746;2022-09-09T02:31:24;100459.59;;;23.08;59.06
15314;BME280;7757;52.626;4.746;2022-09-09T02:33:55;100457.38;;;23.15;59.43
15314;BME280;7757;52.626;4.746;2022-09-09T02:36:24;100457.94;;;23.17;59.15
15314;BME280;7757;52.626;4.746;2022-09-09T02:38:53;100458.19;;;23.15;59.17
15314;BME280;7757;52.626;4.746;2022-09-09T02:41:24;100456.81;;;23.28;58.37
15314;BME280;7757;52.626;4.746;2022-09-09T02:43:52;100451.94;;;23.10;59.56
15314;BME280;7757;52.626;4.746;2022-09-09T02:46:29;100446.19;;;23.21;59.18
15314;BME280;7757;52.626;4.746;2022-09-09T02:49:03;100448.13;;;23.16;58.88
15314;BME280;7757;52.626;4.746;2022-09-09T02:51:40;100444.53;;;23.25;58.31
15314;BME280;7757;52.626;4.746;2022-09-09T02:54:17;100443.44;;;23.21;58.67
15314;BME280;7757;52.626;4.746;2022-09-09T02:56:53;100445.63;;;23.24;58.92
15314;BME280;7757;52.626;4.746;2022-09-09T02:59:22;100438.56;;;23.23;59.17
15314;BME280;7757;52.626;4.746;2022-09-09T03:01:50;100439.16;;;23.05;59.41
15314;BME280;7757;52.626;4.746;2022-09-09T03:04:18;100445.34;;;23.21;59.15
15314;BME280;7757;52.626;4.746;2022-09-09T03:06:45;100446.75;;;23.23;59.03
15314;BME280;7757;52.626;4.746;2022-09-09T03:09:11;100450.56;;;23.12;58.46
15314;BME280;7757;52.626;4.746;2022-09-09T03:11:38;100443.75;;;23.20;58.28
15314;BME280;7757;52.626;4.746;2022-09-09T03:14:05;100440.53;;;22.98;59.66
15314;BME280;7757;52.626;4.746;2022-09-09T03:16:31;100442.16;;;22.99;59.34
15314;BME280;7757;52.626;4.746;2022-09-09T03:19:01;100450.03;;;23.15;58.69
15314;BME280;7757;52.626;4.746;2022-09-09T03:21:28;100435.59;;;23.10;59.08
15314;BME280;7757;52.626;4.746;2022-09-09T03:23:54;100434.22;;;23.07;58.63
15314;BME280;7757;52.626;4.746;2022-09-09T03:26:22;100433.69;;;23.00;58.98
15314;BME280;7757;52.626;4.746;2022-09-09T03:28:48;100432.41;;;22.67;59.67
15314;BME280;7757;52.626;4.746;2022-09-09T03:31:17;100421.22;;;22.74;59.48
15314;BME280;7757;52.626;4.746;2022-09-09T03:33:44;100430.47;;;22.93;59.02
15314;BME280;7757;52.626;4.746;2022-09-09T03:36:12;100426.03;;;23.07;58.49
15314;BME280;7757;52.626;4.746;2022-09-09T03:38:39;100423.09;;;22.94;59.51
15314;BME280;7757;52.626;4.746;2022-09-09T03:41:05;100420.34;;;22.99;58.87
15314;BME280;7757;52.626;4.746;2022-09-09T03:43:33;100422.00;;;22.95;59.03
15314;BME280;7757;52.626;4.746;2022-09-09T03:46:00;100428.00;;;22.92;59.21
15314;BME280;7757;52.626;4.746;2022-09-09T03:48:27;100420.94;;;22.70;59.93
15314;BME280;7757;52.626;4.746;2022-09-09T03:50:54;100420.41;;;22.63;59.74
15314;BME280;7757;52.626;4.746;2022-09-09T03:53:24;100418.78;;;22.77;59.52
15314;BME280;7757;52.626;4.746;2022-09-09T03:55:53;100418.19;;;22.86;59.13
15314;BME280;7757;52.626;4.746;2022-09-09T03:58:22;100415.22;;;22.82;60.05
15314;BME280;7757;52.626;4.746;2022-09-09T04:00:56;100413.59;;;22.61;60.61
15314;BME280;7757;52.626;4.746;2022-09-09T04:03:23;100413.63;;;22.15;61.13
15314;BME280;7757;52.626;4.746;2022-09-09T04:05:50;100416.59;;;22.74;59.89
15314;BME280;7757;52.626;4.746;2022-09-09T04:08:17;100406.50;;;22.85;59.38
15314;BME280;7757;52.626;4.746;2022-09-09T04:10:46;100405.91;;;22.88;59.62
15314;BME280;7757;52.626;4.746;2022-09-09T04:13:13;100400.16;;;22.95;58.84
15314;BME280;7757;52.626;4.746;2022-09-09T04:15:40;100404.06;;;22.53;60.72
15314;BME280;7757;52.626;4.746;2022-09-09T04:18:06;100386.59;;;22.74;59.79
15314;BME280;7757;52.626;4.746;2022-09-09T04:20:33;100394.75;;;22.85;59.78
15314;BME280;7757;52.626;4.746;2022-09-09T04:23:00;100395.34;;;22.66;60.21
15314;BME280;7757;52.626;4.746;2022-09-09T04:25:27;100391.81;;;22.66;60.03
15314;BME280;7757;52.626;4.746;2022-09-09T04:27:55;100392.63;;;22.66;59.41
15314;BME280;7757;52.626;4.746;2022-09-09T04:30:22;100386.88;;;22.58;59.79
15314;BME280;7757;52.626;4.746;2022-09-09T04:32:49;100392.63;;;22.61;59.40
15314;BME280;7757;52.626;4.746;2022-09-09T04:35:15;100390.41;;;22.63;59.41
15314;BME280;7757;52.626;4.746;2022-09-09T04:37:42;100386.63;;;22.49;60.32
15314;BME280;7757;52.626;4.746;2022-09-09T04:40:09;100383.63;;;22.51;59.41
15314;BME280;7757;52.626;4.746;2022-09-09T04:42:36;100374.66;;;22.45;60.16
15314;BME280;7757;52.626;4.746;2022-09-09T04:45:05;100383.63;;;22.61;59.19
15314;BME280;7757;52.626;4.746;2022-09-09T04:47:32;100385.78;;;22.54;59.81
15314;BME280;7757;52.626;4.746;2022-09-09T04:50:00;100376.81;;;22.38;59.91
15314;BME280;7757;52.626;4.746;2022-09-09T04:52:26;100382.78;;;22.60;59.80
15314;BME280;7757;52.626;4.746;2022-09-09T04:54:53;100389.59;;;22.63;59.35
15314;BME280;7757;52.626;4.746;2022-09-09T04:57:19;100385.56;;;22.15;60.62
15314;BME280;7757;52.626;4.746;2022-09-09T04:59:46;100382.53;;;22.47;59.57
15314;BME280;7757;52.626;4.746;2022-09-09T05:02:14;100382.53;;;22.52;59.03
15314;BME280;7757;52.626;4.746;2022-09-09T05:04:41;100384.16;;;22.68;58.62
15314;BME280;7757;52.626;4.746;2022-09-09T05:07:07;100381.47;;;22.38;59.42
15314;BME280;7757;52.626;4.746;2022-09-09T05:09:34;100389.66;;;22.12;60.41
15314;BME280;7757;52.626;4.746;2022-09-09T05:12:01;100385.56;;;22.30;59.75
15314;BME280;7757;52.626;4.746;2022-09-09T05:14:28;100389.38;;;22.29;59.33
15314;BME280;7757;52.626;4.746;2022-09-09T05:16:54;100395.13;;;22.22;59.77
15314;BME280;7757;52.626;4.746;2022-09-09T05:19:22;100385.53;;;22.35;59.61
15314;BME280;7757;52.626;4.746;2022-09-09T05:21:49;100391.00;;;22.45;58.93
15314;BME280;7757;52.626;4.746;2022-09-09T05:24:16;100381.19;;;22.39;59.60
15314;BME280;7757;52.626;4.746;2022-09-09T05:26:44;100384.72;;;22.55;58.85
15314;BME280;7757;52.626;4.746;2022-09-09T05:29:10;100386.63;;;22.39;59.57
15314;BME280;7757;52.626;4.746;2022-09-09T05:31:37;100389.34;;;22.54;59.07
15314;BME280;7757;52.626;4.746;2022-09-09T05:34:04;100377.09;;;22.37;58.73
15314;BME280;7757;52.626;4.746;2022-09-09T05:36:32;100372.22;;;22.44;58.71
15314;BME280;7757;52.626;4.746;2022-09-09T05:38:58;100368.63;;;22.58;58.64
15314;BME280;7757;52.626;4.746;2022-09-09T05:41:26;100371.66;;;22.27;59.76
15314;BME280;7757;52.626;4.746;2022-09-09T05:43:54;100369.75;;;22.27;59.36
15314;BME280;7757;52.626;4.746;2022-09-09T05:46:22;100367.03;;;22.22;59.40
15314;BME280;7757;52.626;4.746;2022-09-09T05:48:50;100355.34;;;22.16;58.84
15314;BME280;7757;52.626;4.746;2022-09-09T05:51:18;100369.22;;;22.10;60.08
15314;BME280;7757;52.626;4.746;2022-09-09T05:53:48;100365.66;;;22.30;60.07
15314;BME280;7757;52.626;4.746;2022-09-09T05:56:18;100371.09;;;22.55;59.04
15314;BME280;7757;52.626;4.746;2022-09-09T05:58:45;100367.78;;;22.63;59.02
15314;BME280;7757;52.626;4.746;2022-09-09T06:01:16;100371.59;;;22.62;58.27
15314;BME280;7757;52.626;4.746;2022-09-09T06:03:44;100376.84;;;22.28;58.79
15314;BME280;7757;52.626;4.746;2022-09-09T06:06:13;100380.63;;;22.52;58.45
15314;BME280;7757;52.626;4.746;2022-09-09T06:08:42;100385.81;;;22.49;58.28
15314;BME280;7757;52.626;4.746;2022-09-09T06:11:13;100382.25;;;22.58;58.14
15314;BME280;7757;52.626;4.746;2022-09-09T06:13:40;100386.88;;;22.58;57.85
15314;BME280;7757;52.626;4.746;2022-09-09T06:16:08;100377.34;;;22.60;57.74
15314;BME280;7757;52.626;4.746;2022-09-09T06:18:36;100382.00;;;22.55;57.86
15314;BME280;7757;52.626;4.746;2022-09-09T06:21:05;100383.63;;;22.66;57.24
15314;BME280;7757;52.626;4.746;2022-09-09T06:23:32;100382.53;;;22.67;57.25
15314;BME280;7757;52.626;4.746;2022-09-09T06:26:02;100377.88;;;22.62;57.70
15314;BME280;7757;52.626;4.746;2022-09-09T06:28:30;100371.31;;;22.78;57.56
15314;BME280;7757;52.626;4.746;2022-09-09T06:30:57;100379.22;;;22.85;56.91
15314;BME280;7757;52.626;4.746;2022-09-09T06:33:24;100389.31;;;22.74;57.53
15314;BME280;7757;52.626;4.746;2022-09-09T06:35:51;100386.06;;;22.72;56.99
15314;BME280;7757;52.626;4.746;2022-09-09T06:38:18;100389.06;;;22.76;57.32
15314;BME280;7757;52.626;4.746;2022-09-09T06:40:51;100386.63;;;22.69;57.50
15314;BME280;7757;52.626;4.746;2022-09-09T06:43:18;100392.03;;;22.79;56.71
15314;BME280;7757;52.626;4.746;2022-09-09T06:45:54;100384.41;;;22.76;57.50
15314;BME280;7757;52.626;4.746;2022-09-09T06:48:20;100384.69;;;22.60;57.56
15314;BME280;7757;52.626;4.746;2022-09-09T06:50:47;100381.97;;;22.65;57.76
15314;BME280;7757;52.626;4.746;2022-09-09T06:53:16;100392.38;;;22.43;58.38
15314;BME280;7757;52.626;4.746;2022-09-09T06:55:44;100388.28;;;22.40;58.37
15314;BME280;7757;52.626;4.746;2022-09-09T06:58:12;100386.91;;;22.48;57.69
15314;BME280;7757;52.626;4.746;2022-09-09T07:00:38;100385.53;;;22.45;57.79
15314;BME280;7757;52.626;4.746;2022-09-09T07:03:06;100396.44;;;22.65;57.31
15314;BME280;7757;52.626;4.746;2022-09-09T07:05:33;100385.53;;;22.55;57.94
15314;BME280;7757;52.626;4.746;2022-09-09T07:07:59;100396.16;;;22.42;58.32
15314;BME280;7757;52.626;4.746;2022-09-09T07:10:27;100386.66;;;22.34;58.05
15314;BME280;7757;52.626;4.746;2022-09-09T07:12:53;100386.09;;;22.42;58.10
15314;BME280;7757;52.626;4.746;2022-09-09T07:15:20;100383.09;;;22.39;58.66
15314;BME280;7757;52.626;4.746;2022-09-09T07:17:48;100383.09;;;22.23;59.46
15314;BME280;7757;52.626;4.746;2022-09-09T07:20:15;100380.41;;;22.29;58.84
15314;BME280;7757;52.626;4.746;2022-09-09T07:22:42;100374.38;;;22.27;59.26
15314;BME280;7757;52.626;4.746;2022-09-09T07:25:09;100371.38;;;22.33;58.83
15314;BME280;7757;52.626;4.746;2022-09-09T07:27:35;100378.47;;;22.39;58.15
15314;BME280;7757;52.626;4.746;2022-09-09T07:30:02;100372.47;;;22.32;58.78
15314;BME280;7757;52.626;4.746;2022-09-09T07:32:29;100380.63;;;22.57;58.35
15314;BME280;7757;52.626;4.746;2022-09-09T07:34:56;100383.06;;;22.59;58.06
15314;BME280;7757;52.626;4.746;2022-09-09T07:37:25;100391.00;;;22.55;58.45
15314;BME280;7757;52.626;4.746;2022-09-09T07:39:51;100384.13;;;22.78;58.19
15314;BME280;7757;52.626;4.746;2022-09-09T07:42:17;100381.13;;;22.79;57.52
15314;BME280;7757;52.626;4.746;2022-09-09T07:44:44;100386.03;;;22.83;57.65
15314;BME280;7757;52.626;4.746;2022-09-09T07:47:11;100388.75;;;22.88;57.57
15314;BME280;7757;52.626;4.746;2022-09-09T07:49:37;100382.97;;;23.04;57.19
15314;BME280;7757;52.626;4.746;2022-09-09T07:52:04;100384.63;;;22.95;57.21
15314;BME280;7757;52.626;4.746;2022-09-09T07:54:32;100386.56;;;22.90;57.25
15314;BME280;7757;52.626;4.746;2022-09-09T07:56:58;100386.03;;;22.77;57.77
15314;BME280;7757;52.626;4.746;2022-09-09T07:59:25;100380.88;;;22.71;57.83
15314;BME280;7757;52.626;4.746;2022-09-09T08:01:52;100386.63;;;22.69;58.45
15314;BME280;7757;52.626;4.746;2022-09-09T08:04:20;100378.72;;;22.48;58.61
15314;BME280;7757;52.626;4.746;2022-09-09T08:06:49;100390.16;;;22.55;58.70
15314;BME280;7757;52.626;4.746;2022-09-09T08:09:18;100395.34;;;22.61;58.83
15314;BME280;7757;52.626;4.746;2022-09-09T08:11:47;100381.00;;;23.10;56.92
15314;BME280;7757;52.626;4.746;2022-09-09T08:14:14;100380.75;;;23.11;57.42
15314;BME280;7757;52.626;4.746;2022-09-09T08:19:08;100379.78;;;22.62;58.33
15314;BME280;7757;52.626;4.746;2022-09-09T08:21:37;100375.97;;;22.68;58.48
15314;BME280;7757;52.626;4.746;2022-09-09T08:24:06;100385.00;;;22.58;58.56
15314;BME280;7757;52.626;4.746;2022-09-09T08:26:35;100374.06;;;22.68;58.41
15314;BME280;7757;52.626;4.746;2022-09-09T08:29:05;100379.25;;;22.65;58.00
15314;BME280;7757;52.626;4.746;2022-09-09T08:31:34;100384.44;;;22.56;58.78
15314;BME280;7757;52.626;4.746;2022-09-09T08:34:02;100388.50;;;22.59;59.04
15314;BME280;7757;52.626;4.746;2022-09-09T08:36:31;100382.25;;;22.58;58.41
15314;BME280;7757;52.626;4.746;2022-09-09T08:38:59;100393.97;;;22.74;57.98
15314;BME280;7757;52.626;4.746;2022-09-09T08:41:39;100385.53;;;22.55;59.22
15314;BME280;7757;52.626;4.746;2022-09-09T08:44:16;100392.31;;;22.63;58.19
15314;BME280;7757;52.626;4.746;2022-09-09T08:46:53;100382.53;;;22.72;58.32
15314;BME280;7757;52.626;4.746;2022-09-09T08:49:38;100388.25;;;22.55;58.49
15314;BME280;7757;52.626;4.746;2022-09-09T08:52:16;100389.06;;;22.56;58.57
15314;BME280;7757;52.626;4.746;2022-09-09T08:54:45;100388.78;;;22.77;57.92
15314;BME280;7757;52.626;4.746;2022-09-09T08:57:18;100395.06;;;22.53;58.69
15314;BME280;7757;52.626;4.746;2022-09-09T08:59:50;100402.16;;;22.54;59.20
15314;BME280;7757;52.626;4.746;2022-09-09T09:02:24;100400.00;;;22.36;59.13
15314;BME280;7757;52.626;4.746;2022-09-09T09:05:01;100395.34;;;22.41;58.76
15314;BME280;7757;52.626;4.746;2022-09-09T09:07:39;100396.16;;;22.52;59.10
15314;BME280;7757;52.626;4.746;2022-09-09T09:10:14;100405.72;;;22.39;59.68
15314;BME280;7757;52.626;4.746;2022-09-09T09:12:43;100410.06;;;22.50;58.77
15314;BME280;7757;52.626;4.746;2022-09-09T09:15:19;100403.25;;;22.68;58.88
15314;BME280;7757;52.626;4.746;2022-09-09T09:17:47;100409.50;;;22.53;58.31
15314;BME280;7757;52.626;4.746;2022-09-09T09:20:15;100413.34;;;22.52;58.88
15314;BME280;7757;52.626;4.746;2022-09-09T09:22:47;100414.97;;;22.58;59.30
15314;BME280;7757;52.626;4.746;2022-09-09T09:25:17;100423.94;;;22.59;58.74
15314;BME280;7757;52.626;4.746;2022-09-09T09:27:51;100420.69;;;22.82;57.95
15314;BME280;7757;52.626;4.746;2022-09-09T09:30:22;100419.56;;;22.83;57.62
15314;BME280;7757;52.626;4.746;2022-09-09T09:32:52;100414.91;;;22.94;57.40
15314;BME280;7757;52.626;4.746;2022-09-09T09:35:20;100418.47;;;22.84;57.68
15314;BME280;7757;52.626;4.746;2022-09-09T09:37:47;100419.06;;;22.61;58.18
15314;BME280;7757;52.626;4.746;2022-09-09T09:40:16;100427.81;;;22.38;59.70
15314;BME280;7757;52.626;4.746;2022-09-09T09:42:52;100420.97;;;22.45;58.72
15314;BME280;7757;52.626;4.746;2022-09-09T09:45:28;100418.53;;;22.29;59.00
15314;BME280;7757;52.626;4.746;2022-09-09T09:48:00;100421.25;;;22.23;59.29
15314;BME280;7757;52.626;4.746;2022-09-09T09:50:29;100426.16;;;22.52;59.07
15314;BME280;7757;52.626;4.746;2022-09-09T09:52:58;100422.34;;;22.43;59.04
15314;BME280;7757;52.626;4.746;2022-09-09T09:55:25;100419.31;;;22.54;59.05
15314;BME280;7757;52.626;4.746;2022-09-09T09:57:52;100428.88;;;22.42;59.03
15314;BME280;7757;52.626;4.746;2022-09-09T10:00:21;100417.97;;;22.57;58.50
15314;BME280;7757;52.626;4.746;2022-09-09T10:02:49;100421.75;;;22.56;58.22
15314;BME280;7757;52.626;4.746;2022-09-09T10:05:19;100417.16;;;22.61;58.43
15314;BME280;7757;52.626;4.746;2022-09-09T10:07:47;100413.31;;;22.62;58.95
15314;BME280;7757;52.626;4.746;2022-09-09T10:10:18;100425.03;;;22.53;58.55
15314;BME280;7757;52.626;4.746;2022-09-09T10:12:53;100424.75;;;22.59;58.56
15314;BME280;7757;52.626;4.746;2022-09-09T10:15:31;100414.97;;;22.58;59.38
15314;BME280;7757;52.626;4.746;2022-09-09T10:18:12;100427.78;;;22.43;59.26
15314;BME280;7757;52.626;4.746;2022-09-09T10:20:49;100418.53;;;22.34;58.82
15314;BME280;7757;52.626;4.746;2022-09-09T10:23:27;100414.69;;;22.55;58.25
15314;BME280;7757;52.626;4.746;2022-09-09T10:26:10;100403.50;;;22.56;57.93
15314;BME280;7757;52.626;4.746;2022-09-09T10:28:53;100415.25;;;22.67;58.36
15314;BME280;7757;52.626;4.746;2022-09-09T10:31:29;100410.59;;;22.57;58.20
15314;BME280;7757;52.626;4.746;2022-09-09T10:34:06;100416.34;;;22.31;58.85
15314;BME280;7757;52.626;4.746;2022-09-09T10:36:44;100415.41;;;23.01;57.21
15314;BME280;7757;52.626;4.746;2022-09-09T10:39:20;100415.56;;;23.29;56.77
15314;BME280;7757;52.626;4.746;2022-09-09T10:42:00;100413.09;;;23.43;56.30
15314;BME280;7757;52.626;4.746;2022-09-09T10:44:40;100407.00;;;23.56;55.83
15314;BME280;7757;52.626;4.746;2022-09-09T10:47:24;100405.50;;;23.79;55.30
15314;BME280;7757;52.626;4.746;2022-09-09T10:50:11;100392.31;;;23.91;54.36
15314;BME280;7757;52.626;4.746;2022-09-09T10:52:48;100396.34;;;23.99;54.47
15314;BME280;7757;52.626;4.746;2022-09-09T10:55:20;100397.81;;;23.86;54.72
15314;BME280;7757;52.626;4.746;2022-09-09T10:57:53;100405.06;;;23.67;55.17
15314;BME280;7757;52.626;4.746;2022-09-09T11:00:22;100401.81;;;23.60;55.39
15314;BME280;7757;52.626;4.746;2022-09-09T11:02:52;100406.00;;;23.86;55.11
15314;BME280;7757;52.626;4.746;2022-09-09T11:05:28;100405.63;;;24.03;54.52
15314;BME280;7757;52.626;4.746;2022-09-09T11:07:58;100401.84;;;23.55;55.33
15314;BME280;7757;52.626;4.746;2022-09-09T11:10:30;100408.81;;;23.76;55.21
15314;BME280;7757;52.626;4.746;2022-09-09T11:13:03;100401.34;;;23.86;54.55
15314;BME280;7757;52.626;4.746;2022-09-09T11:15:38;100400.72;;;24.00;55.06
15314;BME280;7757;52.626;4.746;2022-09-09T11:18:11;100407.03;;;23.95;54.94
15314;BME280;7757;52.626;4.746;2022-09-09T11:20:42;100409.50;;;23.92;54.34
15314;BME280;7757;52.626;4.746;2022-09-09T11:23:12;100401.09;;;23.88;54.23
15314;BME280;7757;52.626;4.746;2022-09-09T11:25:41;100398.81;;;24.00;54.37
15314;BME280;7757;52.626;4.746;2022-09-09T11:28:20;100401.75;;;24.04;54.42
15314;BME280;7757;52.626;4.746;2022-09-09T11:31:02;100395.78;;;24.02;54.61
15314;BME280;7757;52.626;4.746;2022-09-09T11:39:24;100389.25;;;23.98;54.71
15314;BME280;7757;52.626;4.746;2022-09-09T11:42:06;100388.88;;;24.09;54.49
15314;BME280;7757;52.626;4.746;2022-09-09T11:44:33;100394.69;;;24.03;54.09
15314;BME280;7757;52.626;4.746;2022-09-09T11:46:59;100385.00;;;23.81;55.08
15314;BME280;7757;52.626;4.746;2022-09-09T11:49:28;100399.16;;;23.88;54.82
15314;BME280;7757;52.626;4.746;2022-09-09T11:51:57;100397.22;;;23.89;54.51
15314;BME280;7757;52.626;4.746;2022-09-09T11:54:29;100384.44;;;23.84;54.41
15314;BME280;7757;52.626;4.746;2022-09-09T11:56:56;100390.69;;;23.90;54.83
15314;BME280;7757;52.626;4.746;2022-09-09T11:59:25;100386.41;;;23.74;55.48
15314;BME280;7757;52.626;4.746;2022-09-09T12:01:55;100400.88;;;23.79;55.40
15314;BME280;7757;52.626;4.746;2022-09-09T12:04:30;100400.56;;;23.81;55.31
15314;BME280;7757;52.626;4.746;2022-09-09T12:07:00;100383.47;;;23.70;56.36
15314;BME280;7757;52.626;4.746;2022-09-09T12:09:46;100389.53;;;23.96;54.95
15314;BME280;7757;52.626;4.746;2022-09-09T12:12:29;100392.31;;;23.91;55.65
15314;BME280;7757;52.626;4.746;2022-09-09T12:14:59;100389.25;;;23.98;55.62
15314;BME280;7757;52.626;4.746;2022-09-09T12:17:28;100382.81;;;23.83;55.72
15314;BME280;7757;52.626;4.746;2022-09-09T12:20:06;100385.06;;;23.71;56.64
15314;BME280;7757;52.626;4.746;2022-09-09T12:22:42;100381.66;;;23.89;56.16
15314;BME280;7757;52.626;4.746;2022-09-09T12:25:20;100377.72;;;24.06;55.15
15314;BME280;7757;52.626;4.746;2022-09-09T12:28:01;100361.22;;;24.21;54.74
15314;BME280;7757;52.626;4.746;2022-09-09T12:30:34;100366.19;;;24.14;55.39
15314;BME280;7757;52.626;4.746;2022-09-09T12:33:06;100363.66;;;24.22;54.98
15314;BME280;7757;52.626;4.746;2022-09-09T12:35:34;100361.84;;;24.08;55.93
15314;BME280;7757;52.626;4.746;2022-09-09T12:38:06;100369.03;;;23.99;56.05
15314;BME280;7757;52.626;4.746;2022-09-09T12:40:37;100368.50;;;24.30;55.43
15314;BME280;7757;52.626;4.746;2022-09-09T12:43:17;100370.56;;;24.15;55.15
15314;BME280;7757;52.626;4.746;2022-09-09T12:45:44;100365.91;;;24.15;55.04
15314;BME280;7757;52.626;4.746;2022-09-09T12:48:11;100358.53;;;24.16;55.50
15314;BME280;7757;52.626;4.746;2022-09-09T12:50:45;100364.28;;;24.09;55.78
15314;BME280;7757;52.626;4.746;2022-09-09T12:53:21;100361.25;;;24.16;55.69
15314;BME280;7757;52.626;4.746;2022-09-09T12:55:51;100367.22;;;24.23;55.22
15314;BME280;7757;52.626;4.746;2022-09-09T12:58:18;100363.66;;;24.22;55.42
15314;BME280;7757;52.626;4.746;2022-09-09T13:00:49;100362.38;;;24.10;55.37
15314;BME280;7757;52.626;4.746;2022-09-09T13:03:19;100353.63;;;24.13;55.83
15314;BME280;7757;52.626;4.746;2022-09-09T13:05:46;100360.34;;;24.25;55.88
15314;BME280;7757;52.626;4.746;2022-09-09T13:08:15;100363.03;;;24.30;55.39
15314;BME280;7757;52.626;4.746;2022-09-09T13:10:49;100366.69;;;24.50;55.28
15314;BME280;7757;52.626;4.746;2022-09-09T13:13:21;100373.66;;;24.61;54.71
15314;BME280;7757;52.626;4.746;2022-09-09T13:15:51;100383.59;;;24.52;55.18
15314;BME280;7757;52.626;4.746;2022-09-09T13:18:21;100376.47;;;24.56;54.17
15314;BME280;7757;52.626;4.746;2022-09-09T13:20:49;100373.59;;;24.66;54.25
15314;BME280;7757;52.626;4.746;2022-09-09T13:23:18;100368.19;;;24.61;54.24
15314;BME280;7757;52.626;4.746;2022-09-09T13:25:54;100374.72;;;24.65;54.42